createdAt,value
2022-10-08T00:01:39.019Z,12.91
2022-10-08T00:07:42.734Z,13.36
2022-10-08T00:13:46.101Z,13.02
2022-10-08T00:19:47.832Z,13.08
2022-10-08T00:25:49.554Z,13.12
2022-10-08T00:31:51.863Z,13.34
2022-10-08T00:37:53.714Z,13.24
2022-10-08T00:43:59.560Z,13.23
2022-10-08T00:50:10.452Z,13.34
2022-10-08T00:56:12.256Z,13.40
2022-10-08T01:02:14.510Z,13.49
2022-10-08T01:08:26.026Z,13.55
2022-10-08T01:14:49.231Z,13.57
2022-10-08T01:21:06.149Z,13.40
2022-10-08T01:27:31.376Z,13.15
2022-10-08T01:33:48.122Z,13.55
2022-10-08T01:39:53.676Z,13.32
2022-10-08T01:46:00.482Z,13.53
2022-10-08T01:52:08.497Z,13.41
2022-10-08T01:58:16.809Z,13.58
2022-10-08T02:04:35.468Z,13.31
2022-10-08T02:10:37.865Z,13.30
2022-10-08T02:16:48.740Z,13.15
2022-10-08T02:22:59.463Z,12.90
2022-10-08T02:29:18.273Z,13.14
2022-10-08T02:35:39.919Z,13.06
2022-10-08T02:41:46.674Z,13.00
2022-10-08T02:47:53.575Z,12.98
2022-10-08T02:53:56.334Z,12.71
2022-10-08T02:59:59.120Z,12.56
2022-10-08T03:06:08.451Z,12.95
2022-10-08T03:12:10.615Z,12.92
2022-10-08T03:18:13.153Z,12.95
2022-10-08T03:24:15.819Z,13.21
2022-10-08T03:30:17.740Z,13.26
2022-10-08T03:36:20.929Z,13.06
2022-10-08T03:42:22.661Z,12.91
2022-10-08T03:48:24.401Z,12.77
2022-10-08T03:54:26.189Z,12.92
2022-10-08T04:00:28.035Z,12.58
2022-10-08T04:06:30.050Z,12.91
2022-10-08T04:12:31.984Z,12.60
2022-10-08T04:18:34.269Z,12.26
2022-10-08T04:24:36.137Z,12.29
2022-10-08T04:30:38.012Z,12.04
2022-10-08T04:36:40.525Z,12.55
